Date,TemperatureHighF,TemperatureAvgF,TemperatureLowF,DewpointHighF,DewpointAvgF,DewpointLowF,HumidityHigh,HumidityAvg,HumidityLow,PressureMaxIn,PressureMinIn,WindSpeedMaxMPH,WindSpeedAvgMPH,GustSpeedMaxMPH,PrecipitationSumIn
2013-1-1,55.2,35.1,25.2,0.0,0.0,0.0,0,0,100,0.00,0.00,6,1,7,0.00
2013-1-2,58.9,37.3,26.1,0.0,0.0,0.0,0,0,100,0.00,0.00,7,1,8,0.00
2013-1-3,56.0,36.9,24.6,0.0,0.0,0.0,0,0,100,0.00,0.00,8,1,10,0.00
2013-1-4,64.3,44.7,35.7,0.0,0.0,0.0,0,0,100,0.00,0.00,7,2,7,0.00
2013-1-5,45.5,42.4,40.1,0.0,0.0,0.0,0,0,100,0.00,0.00,9,2,11,0.00
2013-1-6,46.0,42.3,38.1,0.0,0.0,0.0,0,0,100,0.00,0.00,9,3,11,0.00
2013-1-7,51.1,46.3,40.0,0.0,0.0,0.0,0,0,100,0.00,0.00,19,4,25,0.00
2013-1-8,52.7,46.5,41.0,0.0,0.0,0.0,0,0,100,0.00,0.00,13,4,16,0.00
2013-1-9,48.8,41.3,35.6,0.0,0.0,0.0,0,0,100,0.00,0.00,12,3,13,0.00
2013-1-10,41.2,35.8,29.6,0.0,0.0,0.0,0,0,100,0.00,0.00,5,1,6,0.00
2013-1-11,47.2,33.1,25.9,0.0,0.0,0.0,0,0,100,0.00,0.00,8,2,8,0.00
2013-1-12,54.0,31.5,23.5,0.0,0.0,0.0,0,0,100,0.00,0.00,8,1,11,0.00
2013-1-13,48.7,30.6,22.7,0.0,0.0,0.0,0,0,100,0.00,0.00,4,1,5,0.00
2013-1-14,42.2,33.6,29.2,0.0,0.0,0.0,0,0,100,0.00,0.00,6,1,7,0.00
2013-1-15,56.1,37.8,28.2,0.0,0.0,0.0,0,0,100,0.00,0.00,6,1,7,0.00
2013-1-16,56.1,35.8,26.8,0.0,0.0,0.0,0,0,100,0.00,0.00,5,1,6,0.00
2013-1-17,40.0,33.6,28.1,0.0,0.0,0.0,0,0,100,0.00,0.00,5,1,5,0.00
2013-1-18,41.7,35.2,31.8,0.0,0.0,0.0,0,0,100,0.00,0.00,6,2,7,0.00
2013-1-19,38.8,34.5,31.5,0.0,0.0,0.0,0,0,100,0.00,0.00,6,2,7,0.00
2013-1-20,50.6,35.5,30.1,0.0,0.0,0.0,0,0,100,0.00,0.00,6,1,7,0.00
2013-1-21,41.0,35.0,31.1,0.0,0.0,0.0,0,0,100,0.00,0.00,8,2,9,0.00
2013-1-22,46.4,35.7,30.2,0.0,0.0,0.0,0,0,100,0.00,0.00,4,1,5,0.00
2013-1-23,44.2,40.9,37.3,0.0,0.0,0.0,0,0,100,0.00,0.00,8,2,9,0.00
2013-1-24,50.9,42.8,37.0,0.0,0.0,0.0,0,0,100,0.00,0.00,6,2,9,0.00
2013-1-25,66.4,46.8,38.3,0.0,0.0,0.0,0,0,100,0.00,0.00,7,2,9,0.00
2013-1-26,48.3,42.1,38.8,0.0,0.0,0.0,0,0,100,0.00,0.00,11,3,14,0.00
2013-1-27,43.8,41.3,39.4,0.0,0.0,0.0,0,0,100,0.00,0.00,12,3,14,0.00
2013-1-28,42.1,40.4,38.1,0.0,0.0,0.0,0,0,100,0.00,0.00,7,2,8,0.00
2013-1-29,48.3,44.2,40.8,0.0,0.0,0.0,0,0,100,0.00,0.00,11,3,12,0.00
2013-1-30,48.3,46.4,43.5,0.0,0.0,0.0,0,0,100,0.00,0.00,7,2,9,0.00
2013-1-31,57.7,47.5,45.0,0.0,0.0,0.0,0,0,100,0.00,0.00,9,2,11,0.00